Matsudo, Japan
Current Conditions -  °F | °C
As of 9:00 PM on Saturday 25 Oct 2014 (Local Time) from RJTT Reporting Station
Scattered Clouds Scattered Clouds  
Wind Chill: 64°   Ceiling: Unl
Heat Index: 64°   Visibility: 6mi
Dew Point: 61°   Wind: 5mph
Humidity: 88%   Direction: 140°SE
Pressure: 30.18"   Gusts: NA
Location:  35.78°N, 139.9°E
Report Text: RJTT 251200Z 14004KT 9999 FEW010 SCT160 18/16 Q1022 NOSIG
Loading
Personal Weather Stations






























Interactive Weather Map
Tropical Storm Tracking
New forecast layout! Learn more

10-Day Weather Forecast

Advertisements
Track Severe Weather on mobile